Terminal Aerodrome Forecast
Issued by NWS

Home | Current Version | Previous Version | Text Only | Print | Product List | Glossary On
Versions: 1 2 3 4 5 6 7 8 9 10 11 12 13 14 15 16 17 18 19 20 21 22 23 24 25 26 27 28 29
000
FTUS43 KMKX 031120
TAFUES
TAF
KUES 031120Z 0312/0412 26006KT P6SM FEW080
     FM031700 25011KT P6SM SCT060
     FM032000 23014G21KT P6SM BKN050
     FM040200 25008KT P6SM -SHRA OVC050 PROB30 0402/0405 4SM -TSRA
      OVC025CB
     FM040700 30008KT P6SM BKN015
     FM041100 35012G21KT P6SM BKN015=

USA.gov is the U.S. government's official web portal to all federal, state and local government web resources and services.